Time;durP1;ratioP1;P1;durP2;ratioP2;P2;SDS_P1;SDS_P2;PMS_P1;PMS_P2;Temp;Humidity;BMP_temperature;BMP_pressure;BME280_temperature;BME280_humidity;BME280_pressure;Samples;Min_cycle;Max_cycle;Signal;HPM_P1;HPM_P2
2021/10/05 00:01:09;;;;;;;14.10;12.80;;;12.70;53.20;;;;;;5041197;28;20292;-69
2021/10/05 00:03:34;;;;;;;14.80;13.40;;;12.70;52.50;;;;;;5041708;28;20428;-69
2021/10/05 00:06:00;;;;;;;13.47;12.13;;;12.70;52.70;;;;;;5040834;28;20529;-69
2021/10/05 00:08:25;;;;;;;14.87;13.40;;;12.70;53.40;;;;;;5042882;28;20187;-68
2021/10/05 00:10:51;;;;;;;12.60;11.30;;;12.70;53.70;;;;;;5042372;28;20195;-68
2021/10/05 00:13:17;;;;;;;12.47;10.20;;;12.70;52.90;;;;;;5045370;28;20176;-70
2021/10/05 00:15:43;;;;;;;10.70;9.80;;;12.80;53.80;;;;;;5042709;28;20434;-69
2021/10/05 00:18:08;;;;;;;11.47;10.37;;;12.80;53.40;;;;;;5042763;28;20182;-68
2021/10/05 00:20:34;;;;;;;12.90;11.80;;;12.80;52.60;;;;;;5042174;28;20317;-68
2021/10/05 00:22:59;;;;;;;13.13;10.47;;;12.70;52.70;;;;;;5041506;28;20175;-68
2021/10/05 00:25:25;;;;;;;12.90;11.70;;;12.60;52.00;;;;;;5040075;28;20231;-69
2021/10/05 00:27:51;;;;;;;13.80;11.80;;;12.50;53.60;;;;;;5041014;28;20198;-69
2021/10/05 00:30:17;;;;;;;12.87;11.67;;;12.40;53.50;;;;;;5037955;28;20191;-69
2021/10/05 00:32:42;;;;;;;11.63;10.63;;;12.30;53.40;;;;;;5039464;28;20173;-68
2021/10/05 00:35:08;;;;;;;12.70;11.57;;;12.30;55.00;;;;;;5040764;28;20650;-69
2021/10/05 00:37:34;;;;;;;13.17;11.83;;;12.30;54.40;;;;;;5038426;28;20544;-69
2021/10/05 00:40:00;;;;;;;12.30;11.23;;;12.20;54.80;;;;;;5039200;28;20228;-69
2021/10/05 00:42:25;;;;;;;11.27;10.37;;;12.20;55.00;;;;;;5039303;28;20415;-68
2021/10/05 00:44:51;;;;;;;12.37;11.27;;;12.30;55.60;;;;;;5039217;28;20546;-69
2021/10/05 00:47:18;;;;;;;12.23;11.03;;;12.30;55.40;;;;;;5039652;28;20565;-68
2021/10/05 00:49:46;;;;;;;11.20;10.20;;;12.30;55.50;;;;;;5039411;28;20186;-68
2021/10/05 00:52:13;;;;;;;11.13;10.03;;;12.20;56.00;;;;;;5039337;28;20406;-69
2021/10/05 00:54:40;;;;;;;11.23;10.00;;;12.10;55.60;;;;;;5037743;28;20422;-67
2021/10/05 00:57:08;;;;;;;11.83;10.73;;;12.00;56.60;;;;;;5038101;28;20460;-69
2021/10/05 00:59:34;;;;;;;11.30;10.10;;;11.90;57.80;;;;;;5038283;28;20789;-69
2021/10/05 01:02:00;;;;;;;11.77;10.77;;;12.00;58.10;;;;;;5040161;28;20445;-69
2021/10/05 01:04:26;;;;;;;12.53;11.33;;;12.00;58.00;;;;;;5039476;28;20808;-68
2021/10/05 01:07:01;;;;;;;14.10;12.67;;;12.10;58.10;;;;;;5039006;28;20484;-69
2021/10/05 01:09:27;;;;;;;12.73;11.43;;;11.90;57.90;;;;;;5038491;28;20409;-68
2021/10/05 01:11:54;;;;;;;13.43;12.23;;;11.90;58.40;;;;;;5038603;28;20429;-68
2021/10/05 01:14:19;;;;;;;11.50;10.40;;;11.90;58.80;;;;;;5039801;28;20406;-68
2021/10/05 01:16:46;;;;;;;13.20;11.90;;;12.00;59.00;;;;;;5038263;28;20422;-69
2021/10/05 01:19:12;;;;;;;11.77;9.60;;;12.00;59.10;;;;;;5038541;28;20418;-68
2021/10/05 01:21:37;;;;;;;9.73;8.73;;;12.00;58.10;;;;;;5038277;28;20531;-68
2021/10/05 01:24:05;;;;;;;16.63;14.87;;;12.00;58.50;;;;;;5038065;28;20231;-69
2021/10/05 01:26:31;;;;;;;15.27;13.97;;;11.90;58.80;;;;;;5038342;28;20229;-69
2021/10/05 01:28:56;;;;;;;14.13;12.60;;;11.90;60.10;;;;;;5039002;28;20406;-68
2021/10/05 01:31:22;;;;;;;14.60;13.30;;;11.90;58.60;;;;;;5040015;28;20218;-68
2021/10/05 01:33:47;;;;;;;15.80;14.20;;;12.00;59.90;;;;;;5038518;28;20171;-68
2021/10/05 01:36:13;;;;;;;16.80;15.30;;;11.90;59.50;;;;;;5039811;28;20182;-70
2021/10/05 01:38:38;;;;;;;15.30;14.00;;;12.00;59.10;;;;;;5039293;28;20191;-70
2021/10/05 01:41:04;;;;;;;15.30;13.80;;;12.00;60.00;;;;;;5040917;28;20779;-69
2021/10/05 01:43:29;;;;;;;12.93;11.77;;;12.00;59.50;;;;;;5039046;28;20203;-69
2021/10/05 01:45:55;;;;;;;16.13;14.77;;;12.10;59.20;;;;;;5038465;28;20217;-69
2021/10/05 01:48:20;;;;;;;13.87;12.47;;;12.00;59.40;;;;;;5037930;28;20171;-68
2021/10/05 01:50:46;;;;;;;14.03;12.60;;;12.10;59.20;;;;;;5038680;28;20544;-68
2021/10/05 01:53:11;;;;;;;16.33;14.80;;;12.10;59.40;;;;;;5039752;28;20182;-69
2021/10/05 01:55:37;;;;;;;12.80;11.40;;;12.20;59.40;;;;;;5038250;28;20274;-70
2021/10/05 01:58:02;;;;;;;13.37;12.07;;;12.20;58.80;;;;;;5039689;28;20178;-69
2021/10/05 02:00:28;;;;;;;13.30;12.07;;;12.20;58.30;;;;;;5039384;28;20207;-68
2021/10/05 02:02:54;;;;;;;15.53;14.10;;;12.20;58.10;;;;;;5038960;28;20668;-69
2021/10/05 02:05:20;;;;;;;14.20;13.10;;;12.10;58.20;;;;;;5039302;28;20200;-69
2021/10/05 02:07:45;;;;;;;15.17;13.77;;;12.10;58.10;;;;;;5039806;28;20440;-69
2021/10/05 02:10:11;;;;;;;13.40;12.30;;;12.10;58.50;;;;;;5039562;28;20202;-69
2021/10/05 02:12:37;;;;;;;12.53;11.23;;;12.10;58.00;;;;;;5038772;28;20180;-69
2021/10/05 02:15:04;;;;;;;12.23;10.97;;;12.10;57.80;;;;;;5038192;28;20220;-70
2021/10/05 02:17:30;;;;;;;15.93;12.80;;;12.10;58.30;;;;;;5038866;28;20176;-69
2021/10/05 02:19:56;;;;;;;14.90;13.70;;;12.20;58.20;;;;;;5039270;28;20414;-69
2021/10/05 02:22:21;;;;;;;12.13;10.90;;;12.20;58.30;;;;;;5039675;28;20267;-68
2021/10/05 02:24:47;;;;;;;10.90;9.90;;;12.20;57.40;;;;;;5038286;28;20320;-68
2021/10/05 02:27:16;;;;;;;15.67;13.10;;;12.20;57.60;;;;;;5039033;28;20203;-69
2021/10/05 02:29:42;;;;;;;12.20;11.10;;;12.20;58.20;;;;;;5038123;28;20818;-69
2021/10/05 02:32:10;;;;;;;15.60;11.47;;;12.10;56.20;;;;;;5037736;28;20437;-69
2021/10/05 02:34:37;;;;;;;11.90;10.90;;;12.00;57.30;;;;;;5037965;28;20451;-67
2021/10/05 02:37:04;;;;;;;13.80;12.53;;;12.00;58.00;;;;;;5042145;28;20416;-68
2021/10/05 02:39:30;;;;;;;13.97;12.80;;;12.00;57.80;;;;;;5041861;28;20449;-69
2021/10/05 02:41:55;;;;;;;15.43;14.03;;;12.00;58.00;;;;;;5041653;28;20459;-69
2021/10/05 02:44:21;;;;;;;17.43;15.83;;;12.00;58.50;;;;;;5042435;28;20482;-69
2021/10/05 02:46:48;;;;;;;15.90;14.40;;;12.00;58.70;;;;;;5042805;28;20211;-68
2021/10/05 02:49:14;;;;;;;16.87;15.23;;;12.10;59.30;;;;;;5043596;28;20190;-68
2021/10/05 02:51:40;;;;;;;16.73;15.13;;;12.10;59.20;;;;;;5043246;28;20441;-69
2021/10/05 02:54:05;;;;;;;13.97;12.60;;;12.20;58.20;;;;;;5042993;28;20415;-69
2021/10/05 02:56:31;;;;;;;13.03;11.97;;;12.20;58.50;;;;;;5042335;28;20790;-69
2021/10/05 02:58:57;;;;;;;14.73;13.20;;;12.20;58.80;;;;;;5043049;28;20194;-70
2021/10/05 03:01:22;;;;;;;10.97;9.97;;;12.20;58.10;;;;;;5042288;28;20266;-70
2021/10/05 03:03:48;;;;;;;14.30;13.10;;;12.10;57.50;;;;;;5040262;28;20189;-69
2021/10/05 03:06:14;;;;;;;11.13;10.13;;;12.10;57.70;;;;;;5041047;28;20388;-69
2021/10/05 03:08:41;;;;;;;13.40;11.50;;;12.20;57.90;;;;;;5040783;28;20183;-69
2021/10/05 03:11:08;;;;;;;15.80;14.30;;;12.10;58.20;;;;;;5042002;28;20191;-69
2021/10/05 03:13:35;;;;;;;14.67;13.17;;;12.10;58.10;;;;;;5042034;28;20441;-69
2021/10/05 03:16:07;;;;;;;14.23;12.10;;;12.20;57.40;;;;;;5040305;28;20449;-69
2021/10/05 03:18:33;;;;;;;16.53;14.90;;;12.00;56.70;;;;;;5040198;28;20417;-69
2021/10/05 03:20:59;;;;;;;12.80;11.60;;;12.00;58.00;;;;;;5040685;28;20425;-70
2021/10/05 03:23:25;;;;;;;12.80;11.60;;;11.90;58.70;;;;;;5039659;28;20183;-69
2021/10/05 03:25:51;;;;;;;14.67;13.37;;;11.90;57.90;;;;;;5040365;28;20556;-68
2021/10/05 03:28:16;;;;;;;14.47;13.33;;;12.00;58.90;;;;;;5041670;28;20280;-69
2021/10/05 03:30:42;;;;;;;15.33;14.00;;;12.10;59.00;;;;;;5041422;28;20430;-69
2021/10/05 03:33:07;;;;;;;15.67;14.37;;;12.10;59.20;;;;;;5040602;28;20217;-69
2021/10/05 03:35:33;;;;;;;16.33;14.83;;;12.10;58.60;;;;;;5041566;28;20198;-69
2021/10/05 03:37:58;;;;;;;15.57;13.93;;;12.10;58.50;;;;;;5041306;28;20207;-69
2021/10/05 03:40:24;;;;;;;15.70;14.20;;;12.10;58.60;;;;;;5041510;28;20310;-68
2021/10/05 03:42:50;;;;;;;14.57;13.20;;;12.10;57.80;;;;;;5041057;28;20668;-69
2021/10/05 03:45:15;;;;;;;16.13;14.63;;;12.00;57.50;;;;;;5039768;28;20813;-69
2021/10/05 03:47:41;;;;;;;14.23;13.00;;;12.00;58.00;;;;;;5039311;28;20183;-70
2021/10/05 03:50:09;;;;;;;14.63;13.20;;;12.00;58.10;;;;;;5038798;28;20205;-69
2021/10/05 03:52:35;;;;;;;15.67;14.30;;;12.00;58.60;;;;;;5057177;28;20282;-69
2021/10/05 03:55:01;;;;;;;13.20;12.00;;;12.10;58.10;;;;;;5040773;28;20441;-69
2021/10/05 03:57:26;;;;;;;18.73;13.97;;;12.00;58.00;;;;;;5040578;28;20175;-68
2021/10/05 03:59:52;;;;;;;15.50;14.20;;;12.10;58.10;;;;;;5034787;28;20187;-68
2021/10/05 04:02:17;;;;;;;16.00;14.47;;;12.10;58.20;;;;;;5032183;28;20702;-69
2021/10/05 04:04:43;;;;;;;14.50;12.10;;;12.00;57.70;;;;;;5033554;28;20269;-69
2021/10/05 04:07:09;;;;;;;14.63;12.10;;;12.00;57.70;;;;;;5031708;28;20218;-69
2021/10/05 04:09:34;;;;;;;16.83;15.30;;;12.00;58.00;;;;;;5033551;28;20198;-69
2021/10/05 04:12:00;;;;;;;15.40;13.90;;;12.00;58.30;;;;;;5033942;28;20203;-69
2021/10/05 04:14:25;;;;;;;24.60;17.20;;;12.00;59.10;;;;;;5033891;28;20202;-68
2021/10/05 04:16:51;;;;;;;15.10;13.67;;;12.00;58.40;;;;;;5032917;28;20262;-69
2021/10/05 04:19:17;;;;;;;20.17;17.63;;;12.00;59.20;;;;;;5032358;28;20662;-68
2021/10/05 04:21:42;;;;;;;20.10;14.00;;;12.10;59.20;;;;;;5032856;28;20208;-68
2021/10/05 04:24:08;;;;;;;16.53;15.20;;;12.10;58.70;;;;;;5032845;28;20179;-69
2021/10/05 04:26:34;;;;;;;19.73;17.83;;;12.10;58.50;;;;;;5031158;28;20211;-69
2021/10/05 04:28:59;;;;;;;18.47;16.77;;;12.10;59.10;;;;;;5032140;28;20421;-69
2021/10/05 04:31:25;;;;;;;15.97;14.53;;;12.10;59.00;;;;;;5032492;28;20680;-69
2021/10/05 04:33:51;;;;;;;16.00;14.50;;;12.10;58.90;;;;;;5032564;28;20179;-69
2021/10/05 04:36:17;;;;;;;14.20;12.57;;;12.10;58.20;;;;;;5032571;28;20421;-69
2021/10/05 04:38:42;;;;;;;14.77;13.30;;;12.10;58.10;;;;;;5031417;28;20183;-69
2021/10/05 04:41:08;;;;;;;15.10;13.67;;;12.10;58.10;;;;;;5031244;28;20314;-69
2021/10/05 04:43:33;;;;;;;19.97;14.00;;;12.10;58.90;;;;;;5032591;28;20210;-69
2021/10/05 04:45:59;;;;;;;15.07;13.20;;;12.10;59.00;;;;;;5032644;28;20229;-69
2021/10/05 04:48:24;;;;;;;12.87;11.67;;;12.20;59.60;;;;;;5030613;28;20190;-69
2021/10/05 04:50:50;;;;;;;16.03;14.17;;;12.20;58.90;;;;;;5032048;28;20198;-69
2021/10/05 04:53:16;;;;;;;12.13;10.90;;;12.30;58.30;;;;;;5031011;28;20654;-69
2021/10/05 04:55:44;;;;;;;12.60;11.30;;;12.20;57.80;;;;;;5032798;28;20176;-69
2021/10/05 04:58:11;;;;;;;12.60;11.40;;;12.20;57.10;;;;;;5032265;28;20508;-68
2021/10/05 05:00:36;;;;;;;10.80;9.70;;;12.10;56.50;;;;;;5032038;28;20469;-69
2021/10/05 05:03:02;;;;;;;14.40;11.77;;;12.10;57.40;;;;;;5031361;28;20414;-69
2021/10/05 05:05:28;;;;;;;12.07;10.67;;;12.20;57.30;;;;;;5032287;28;20260;-68
2021/10/05 05:08:01;;;;;;;13.77;12.30;;;12.10;57.30;;;;;;5032051;28;20404;-68
2021/10/05 05:10:27;;;;;;;15.03;13.53;;;12.10;57.30;;;;;;5031264;28;20183;-69
2021/10/05 05:12:52;;;;;;;13.97;11.80;;;12.20;58.30;;;;;;5031083;28;20421;-68
2021/10/05 05:15:19;;;;;;;12.83;11.50;;;12.20;58.10;;;;;;5032293;28;20425;-69
2021/10/05 05:17:44;;;;;;;13.23;12.23;;;12.20;56.60;;;;;;5031682;28;20186;-69
2021/10/05 05:20:10;;;;;;;18.67;12.10;;;12.10;56.30;;;;;;5030903;28;20850;-68
2021/10/05 05:22:36;;;;;;;17.00;14.70;;;12.00;57.20;;;;;;5031860;28;20172;-69
2021/10/05 05:25:06;;;;;;;13.60;11.90;;;12.00;57.10;;;;;;5032608;28;20433;-69
2021/10/05 05:27:31;;;;;;;14.67;13.20;;;12.10;57.20;;;;;;5031469;28;20187;-69
2021/10/05 05:29:57;;;;;;;15.50;14.00;;;12.10;56.20;;;;;;5031363;28;20900;-69
2021/10/05 05:32:23;;;;;;;15.50;13.83;;;12.10;56.90;;;;;;5032011;28;20179;-69
2021/10/05 05:34:48;;;;;;;14.30;12.63;;;12.20;58.20;;;;;;5031936;28;20495;-69
2021/10/05 05:37:14;;;;;;;15.77;14.23;;;12.20;57.10;;;;;;5024177;28;20239;-69
2021/10/05 05:39:41;;;;;;;14.40;12.77;;;12.20;58.20;;;;;;5026662;28;20187;-69
2021/10/05 05:42:07;;;;;;;14.80;13.10;;;12.30;57.60;;;;;;5055999;23;20738;-67
2021/10/05 05:44:33;;;;;;;15.17;13.67;;;12.30;56.30;;;;;;5031324;28;20441;-67
2021/10/05 05:46:59;;;;;;;13.67;12.47;;;12.30;56.70;;;;;;5046669;28;20517;-67
2021/10/05 05:49:24;;;;;;;14.40;12.60;;;12.30;56.90;;;;;;5031492;28;20419;-67
2021/10/05 05:51:50;;;;;;;12.43;11.13;;;12.40;57.60;;;;;;5023817;28;20211;-67
2021/10/05 05:54:15;;;;;;;14.47;13.23;;;12.40;57.50;;;;;;5012612;28;20681;-67
2021/10/05 05:56:41;;;;;;;14.30;12.70;;;12.50;57.20;;;;;;5026486;28;20183;-67
2021/10/05 05:59:07;;;;;;;16.47;12.63;;;12.50;55.10;;;;;;5030648;28;20675;-67
2021/10/05 06:01:33;;;;;;;14.20;13.10;;;12.40;55.20;;;;;;5030738;28;20619;-67
2021/10/05 06:04:00;;;;;;;16.27;14.80;;;12.40;56.10;;;;;;5031225;28;20422;-67
2021/10/05 06:06:29;;;;;;;15.20;13.73;;;12.40;56.30;;;;;;5030943;28;20293;-67
2021/10/05 06:08:55;;;;;;;16.27;14.77;;;12.40;56.30;;;;;;5030719;28;20441;-68
2021/10/05 06:11:21;;;;;;;15.43;13.17;;;12.50;56.30;;;;;;5029960;28;20432;-68
2021/10/05 06:13:47;;;;;;;13.70;12.50;;;12.50;56.20;;;;;;5031041;28;20414;-68
2021/10/05 06:16:14;;;;;;;13.90;12.50;;;12.60;55.60;;;;;;5030814;28;20520;-68
2021/10/05 06:18:40;;;;;;;14.30;12.80;;;12.60;55.50;;;;;;5030996;28;20812;-68
2021/10/05 06:21:05;;;;;;;15.60;14.10;;;12.60;55.60;;;;;;5030779;28;20437;-68
2021/10/05 06:23:31;;;;;;;15.93;14.37;;;12.60;55.20;;;;;;5030667;28;20290;-67
2021/10/05 06:25:56;;;;;;;13.47;12.20;;;12.70;55.50;;;;;;5030832;28;20296;-67
2021/10/05 06:28:23;;;;;;;12.90;11.70;;;12.70;54.80;;;;;;5030889;28;20264;-67
2021/10/05 06:30:48;;;;;;;12.02;9.23;;;12.70;55.40;;;;;;5028956;28;20456;-70
2021/10/05 06:33:14;;;;;;;16.47;12.00;;;12.60;53.80;;;;;;5031226;28;20191;-67
2021/10/05 06:35:40;;;;;;;13.70;12.30;;;12.60;54.10;;;;;;5027440;28;20659;-68
2021/10/05 06:38:05;;;;;;;12.17;9.70;;;12.50;54.60;;;;;;5032911;28;20187;-69
2021/10/05 06:40:33;;;;;;;11.47;10.40;;;12.40;55.00;;;;;;5042796;28;20202;-67
2021/10/05 06:43:00;;;;;;;13.03;11.77;;;12.40;55.40;;;;;;5042897;28;20194;-67
2021/10/05 06:45:27;;;;;;;13.50;9.43;;;12.40;56.00;;;;;;5024410;28;20978;-68
2021/10/05 06:47:53;;;;;;;10.77;9.77;;;12.40;56.40;;;;;;5026460;28;20426;-67
2021/10/05 06:50:20;;;;;;;12.73;11.53;;;12.40;56.50;;;;;;5034258;28;20425;-67
2021/10/05 06:52:45;;;;;;;11.70;10.50;;;12.30;56.00;;;;;;5025477;28;20472;-67
2021/10/05 06:55:12;;;;;;;10.97;9.87;;;12.30;56.60;;;;;;5026071;28;20842;-68
2021/10/05 06:57:37;;;;;;;11.80;10.80;;;12.40;57.60;;;;;;5025961;28;20175;-66
2021/10/05 07:00:05;;;;;;;10.43;9.30;;;12.30;57.60;;;;;;5025926;28;20415;-69
2021/10/05 07:02:31;;;;;;;11.77;9.87;;;12.30;57.20;;;;;;5026566;28;20590;-68
2021/10/05 07:04:56;;;;;;;9.33;8.43;;;12.30;57.40;;;;;;5026067;28;20432;-67
2021/10/05 07:07:22;;;;;;;11.00;9.93;;;12.30;57.10;;;;;;5025772;28;20257;-67
2021/10/05 07:09:47;;;;;;;10.60;9.50;;;12.30;56.40;;;;;;5029763;28;20225;-67
2021/10/05 07:12:13;;;;;;;9.57;8.67;;;12.30;56.10;;;;;;5030556;28;20195;-66
2021/10/05 07:14:38;;;;;;;10.47;9.43;;;12.30;56.40;;;;;;5029915;28;20700;-67
2021/10/05 07:17:04;;;;;;;9.83;8.90;;;12.40;56.60;;;;;;5028739;28;20183;-67
2021/10/05 07:19:30;;;;;;;10.77;9.57;;;12.40;55.90;;;;;;5030176;28;20176;-67
2021/10/05 07:21:55;;;;;;;10.83;8.63;;;12.40;54.40;;;;;;5032501;28;20235;-68
2021/10/05 07:24:21;;;;;;;9.67;8.67;;;12.40;54.10;;;;;;5033773;28;20186;-67
2021/10/05 07:26:46;;;;;;;12.63;10.90;;;12.40;54.70;;;;;;5033946;28;20209;-67
2021/10/05 07:29:14;;;;;;;10.43;9.47;;;12.50;54.50;;;;;;5033755;28;20186;-66
2021/10/05 07:31:39;;;;;;;9.53;8.67;;;12.50;55.40;;;;;;5032359;28;20211;-67
2021/10/05 07:34:05;;;;;;;10.00;8.90;;;12.60;55.90;;;;;;5033283;28;20406;-67
2021/10/05 07:36:31;;;;;;;10.90;9.80;;;12.70;56.60;;;;;;5033825;28;20201;-66
2021/10/05 07:38:56;;;;;;;11.47;10.30;;;12.80;56.00;;;;;;5033520;28;20183;-67
2021/10/05 07:41:22;;;;;;;11.83;9.60;;;12.80;55.50;;;;;;5033636;28;20650;-69
2021/10/05 07:43:47;;;;;;;11.67;10.03;;;12.80;55.50;;;;;;5033683;28;20183;-68
2021/10/05 07:46:16;;;;;;;12.50;11.47;;;12.90;55.80;;;;;;5032963;28;20262;-68
2021/10/05 07:48:42;;;;;;;11.23;10.13;;;13.00;54.00;;;;;;5032148;28;20185;-68
2021/10/05 07:51:08;;;;;;;10.90;9.70;;;13.00;54.00;;;;;;5033490;28;20824;-66
2021/10/05 07:53:35;;;;;;;11.93;9.93;;;13.20;54.20;;;;;;5033621;28;20411;-66
2021/10/05 07:56:01;;;;;;;11.57;10.30;;;13.20;54.20;;;;;;5032872;28;20178;-66
2021/10/05 07:58:27;;;;;;;11.03;9.87;;;13.30;52.90;;;;;;5031781;28;20446;-66
2021/10/05 08:00:52;;;;;;;10.67;9.67;;;13.30;53.00;;;;;;5010313;28;20544;-66
2021/10/05 08:03:18;;;;;;;10.57;9.60;;;13.40;52.30;;;;;;5027689;28;20183;-66
2021/10/05 08:05:44;;;;;;;11.57;10.53;;;13.40;51.70;;;;;;5032648;28;20202;-66
2021/10/05 08:08:10;;;;;;;11.87;10.77;;;13.60;52.70;;;;;;5032935;28;20228;-66
2021/10/05 08:10:37;;;;;;;11.60;10.10;;;13.70;52.90;;;;;;5032809;28;20202;-66
2021/10/05 08:13:02;;;;;;;12.70;10.27;;;13.90;52.50;;;;;;5032701;28;20405;-66
2021/10/05 08:15:29;;;;;;;9.60;8.67;;;14.00;50.40;;;;;;5032170;28;20559;-66
2021/10/05 08:17:55;;;;;;;9.97;9.03;;;14.00;49.20;;;;;;5032939;28;20187;-66
2021/10/05 08:20:22;;;;;;;10.60;9.03;;;14.10;48.80;;;;;;5031675;28;20468;-66
2021/10/05 08:22:48;;;;;;;10.37;9.47;;;14.20;48.20;;;;;;5033446;28;20867;-66
2021/10/05 08:25:14;;;;;;;9.10;8.23;;;14.30;47.40;;;;;;5032252;28;20461;-66
2021/10/05 08:27:39;;;;;;;10.27;9.23;;;14.40;45.90;;;;;;5032252;28;20183;-66
2021/10/05 08:30:06;;;;;;;9.23;8.43;;;14.50;45.30;;;;;;5032436;28;20538;-66
2021/10/05 08:32:32;;;;;;;7.87;7.20;;;14.60;45.40;;;;;;5031961;28;20191;-66
2021/10/05 08:34:58;;;;;;;7.93;7.13;;;14.60;45.00;;;;;;5032507;28;20483;-67
2021/10/05 08:37:23;;;;;;;12.93;6.90;;;14.60;44.50;;;;;;5030542;28;20180;-66
2021/10/05 08:39:49;;;;;;;7.53;6.93;;;14.70;42.90;;;;;;5032604;28;20197;-66
2021/10/05 08:42:15;;;;;;;9.10;8.20;;;14.60;41.90;;;;;;5032403;28;20246;-66
2021/10/05 08:44:40;;;;;;;8.30;7.37;;;14.70;44.00;;;;;;5032754;28;20723;-66
2021/10/05 08:47:06;;;;;;;6.83;6.23;;;14.80;44.10;;;;;;5031825;28;20268;-66
2021/10/05 08:49:31;;;;;;;11.33;7.13;;;14.80;44.80;;;;;;5032047;28;20214;-66
2021/10/05 08:51:57;;;;;;;6.60;6.10;;;14.80;42.20;;;;;;5033085;28;20194;-66
2021/10/05 08:54:23;;;;;;;6.10;5.50;;;14.80;43.30;;;;;;5032353;28;20167;-66
2021/10/05 08:56:49;;;;;;;5.50;5.00;;;15.00;42.80;;;;;;5031433;28;20180;-66
2021/10/05 08:59:15;;;;;;;7.10;5.80;;;15.00;42.20;;;;;;5030858;28;20483;-66
2021/10/05 09:01:41;;;;;;;4.87;4.30;;;15.10;43.20;;;;;;5039718;28;20206;-68
2021/10/05 09:04:07;;;;;;;5.77;4.87;;;15.20;43.90;;;;;;5047745;28;20528;-67
2021/10/05 09:06:35;;;;;;;7.40;4.63;;;15.40;43.10;;;;;;5045728;28;20513;-63
2021/10/05 09:09:04;;;;;;;4.40;4.10;;;15.50;39.40;;;;;;5045985;28;20472;-65
2021/10/05 09:11:42;;;;;;;5.87;5.10;;;15.30;39.50;;;;;;5046163;28;20485;-67
2021/10/05 09:14:08;;;;;;;5.90;4.73;;;15.40;40.00;;;;;;5044148;28;20406;-65
2021/10/05 09:16:34;;;;;;;5.90;5.00;;;15.40;41.60;;;;;;5047934;28;20437;-65
2021/10/05 09:19:02;;;;;;;5.23;4.73;;;15.50;41.10;;;;;;5080205;28;20439;-66
2021/10/05 09:21:36;;;;;;;4.13;3.40;;;15.60;42.10;;;;;;5052822;28;20213;-67
2021/10/05 09:24:10;;;;;;;5.50;4.40;;;15.80;41.30;;;;;;5058158;28;20429;-67
2021/10/05 09:26:58;;;;;;;3.50;2.90;;;16.00;38.70;;;;;;5049983;28;20453;-67
2021/10/05 09:29:29;;;;;;;3.67;2.80;;;16.10;38.50;;;;;;5050286;28;20430;-65
2021/10/05 09:32:12;;;;;;;2.80;2.50;;;16.30;37.70;;;;;;5049527;28;20441;-66
2021/10/05 09:34:45;;;;;;;5.10;2.53;;;16.40;36.90;;;;;;5051337;28;20992;-64
2021/10/05 09:37:16;;;;;;;3.63;2.93;;;16.60;36.80;;;;;;5049966;28;20468;-66
2021/10/05 09:39:47;;;;;;;3.50;2.87;;;16.60;35.70;;;;;;5048090;28;20438;-67
2021/10/05 09:42:37;;;;;;;3.53;3.20;;;16.50;35.90;;;;;;5042736;28;20460;-69
2021/10/05 09:45:06;;;;;;;3.57;2.47;;;16.50;35.80;;;;;;5039751;28;20779;-68
2021/10/05 09:47:39;;;;;;;3.03;2.83;;;16.30;34.70;;;;;;5038345;28;20525;-70
2021/10/05 09:50:14;;;;;;;2.70;2.50;;;16.20;35.60;;;;;;5040248;28;20437;-70
2021/10/05 09:53:01;;;;;;;4.20;2.30;;;16.20;35.90;;;;;;5037838;28;20414;-68
2021/10/05 09:55:31;;;;;;;2.97;2.10;;;16.20;36.40;;;;;;5042156;28;20418;-70
2021/10/05 09:57:57;;;;;;;2.17;1.90;;;16.20;36.40;;;;;;5042424;28;20422;-68
2021/10/05 10:00:26;;;;;;;4.93;1.77;;;16.30;36.50;;;;;;5038519;28;20429;-69
2021/10/05 10:02:52;;;;;;;3.00;2.00;;;16.40;36.60;;;;;;5036399;28;20751;-70
2021/10/05 10:05:21;;;;;;;2.50;1.90;;;16.50;34.80;;;;;;5041616;28;20951;-69
2021/10/05 10:07:49;;;;;;;3.33;2.10;;;16.50;34.40;;;;;;5035579;28;20790;-69
2021/10/05 10:10:17;;;;;;;2.60;1.90;;;16.60;35.00;;;;;;5036606;28;20446;-70
2021/10/05 10:12:49;;;;;;;2.20;1.40;;;16.70;34.70;;;;;;5037304;28;20418;-69
2021/10/05 10:15:16;;;;;;;1.90;1.60;;;16.80;34.10;;;;;;5036529;28;20414;-67
2021/10/05 10:17:42;;;;;;;2.27;1.93;;;16.80;33.80;;;;;;5035019;28;20802;-69
2021/10/05 10:20:19;;;;;;;3.20;1.80;;;16.80;34.20;;;;;;5031831;28;20418;-67
2021/10/05 10:22:45;;;;;;;1.60;1.37;;;16.80;32.40;;;;;;5031404;28;20402;-66
2021/10/05 10:25:32;;;;;;;2.50;1.60;;;16.90;32.50;;;;;;5030872;28;20778;-67
2021/10/05 10:28:11;;;;;;;2.57;1.77;;;16.90;33.00;;;;;;5029287;28;20438;-67
2021/10/05 10:30:52;;;;;;;3.90;1.50;;;17.00;33.70;;;;;;5028262;28;20438;-68
2021/10/05 10:33:19;;;;;;;4.10;1.80;;;17.10;33.40;;;;;;5030841;28;20441;-67
2021/10/05 10:35:58;;;;;;;2.20;1.90;;;17.20;32.10;;;;;;5030351;28;20433;-67
2021/10/05 10:38:28;;;;;;;2.50;2.17;;;17.20;33.30;;;;;;5042337;28;20424;-69
2021/10/05 10:40:55;;;;;;;3.20;1.57;;;17.20;32.00;;;;;;5045629;28;20457;-67
2021/10/05 10:43:25;;;;;;;1.60;1.30;;;17.10;30.40;;;;;;5034019;28;20496;-68
2021/10/05 10:45:56;;;;;;;1.90;1.60;;;17.20;30.50;;;;;;5026048;28;20466;-68
2021/10/05 10:48:40;;;;;;;8.43;2.20;;;17.30;30.30;;;;;;5010951;28;20523;-67
2021/10/05 10:51:20;;;;;;;3.43;1.70;;;17.20;31.50;;;;;;5010322;28;20435;-67
2021/10/05 10:53:47;;;;;;;2.50;1.37;;;17.20;31.50;;;;;;5029734;28;20433;-67
2021/10/05 10:56:28;;;;;;;2.80;1.57;;;17.20;30.40;;;;;;5031478;28;20516;-67
2021/10/05 10:58:59;;;;;;;2.00;1.47;;;17.20;30.80;;;;;;5034440;28;20501;-67
2021/10/05 11:01:35;;;;;;;2.07;1.53;;;17.30;30.10;;;;;;5033721;28;20505;-67
2021/10/05 11:04:06;;;;;;;2.10;1.60;;;17.30;30.40;;;;;;5034409;28;20417;-67
2021/10/05 11:06:31;;;;;;;1.87;1.60;;;17.30;31.20;;;;;;5033981;28;20464;-67
2021/10/05 11:09:00;;;;;;;1.83;1.20;;;17.30;30.80;;;;;;5034261;28;20787;-67
2021/10/05 11:11:31;;;;;;;3.30;1.33;;;17.20;46.10;;;;;;5032321;28;20206;-67
2021/10/05 11:14:01;;;;;;;2.07;1.60;;;17.20;47.50;;;;;;5014397;28;20422;-67
2021/10/05 11:16:27;;;;;;;2.07;1.17;;;17.40;46.10;;;;;;5024212;28;20434;-67
2021/10/05 11:19:06;;;;;;;2.70;1.60;;;17.40;47.90;;;;;;5033898;28;20445;-67
2021/10/05 11:21:34;;;;;;;2.83;1.50;;;17.50;47.90;;;;;;5033758;28;20459;-67
2021/10/05 11:24:00;;;;;;;2.03;1.13;;;17.60;49.60;;;;;;5034082;28;20465;-68
2021/10/05 11:26:46;;;;;;;2.57;1.50;;;17.60;49.90;;;;;;5033699;28;20505;-66
2021/10/05 11:29:22;;;;;;;1.97;1.50;;;17.70;52.40;;;;;;5033693;28;20170;-67
2021/10/05 11:31:50;;;;;;;2.37;1.50;;;17.70;50.20;;;;;;5033698;28;20445;-67
2021/10/05 11:34:17;;;;;;;2.10;1.43;;;17.50;30.00;;;;;;5034337;28;20398;-67
2021/10/05 11:36:43;;;;;;;8.83;1.67;;;17.60;30.80;;;;;;5033526;28;20769;-67
2021/10/05 11:39:17;;;;;;;2.40;1.47;;;17.60;31.30;;;;;;5033866;28;20418;-67
2021/10/05 11:41:43;;;;;;;2.80;1.40;;;17.60;31.90;;;;;;5040343;23;20238;-68
2021/10/05 11:44:16;;;;;;;2.70;2.10;;;17.60;30.10;;;;;;5016244;28;20415;-69
2021/10/05 11:46:52;;;;;;;2.00;1.20;;;17.60;32.50;;;;;;5024279;28;20468;-68
2021/10/05 11:49:18;;;;;;;2.97;1.60;;;17.50;32.40;;;;;;5033205;28;20558;-67
2021/10/05 11:51:44;;;;;;;2.90;1.30;;;17.40;32.60;;;;;;5033104;28;20461;-66
2021/10/05 11:54:21;;;;;;;1.87;1.20;;;17.50;33.50;;;;;;5033420;28;20469;-67
2021/10/05 11:56:47;;;;;;;2.70;1.90;;;17.60;34.20;;;;;;5033070;28;20584;-67
2021/10/05 11:59:34;;;;;;;1.80;1.50;;;17.70;33.50;;;;;;5032723;28;20410;-67
2021/10/05 12:02:11;;;;;;;2.10;1.57;;;17.80;32.60;;;;;;5032850;28;20440;-67
2021/10/05 12:04:38;;;;;;;2.30;1.80;;;17.90;31.50;;;;;;5033208;28;20398;-66
2021/10/05 12:07:12;;;;;;;1.80;1.33;;;18.00;32.80;;;;;;5031810;28;20476;-67
2021/10/05 12:09:39;;;;;;;2.03;1.80;;;18.10;32.10;;;;;;5032400;28;20406;-67
2021/10/05 12:12:07;;;;;;;2.17;1.70;;;18.00;30.90;;;;;;5032349;28;20525;-67
2021/10/05 12:14:57;;;;;;;3.53;1.40;;;18.10;31.60;;;;;;5032773;28;20414;-66
2021/10/05 12:17:24;;;;;;;2.07;1.60;;;18.10;30.00;;;;;;5032456;28;20777;-67
2021/10/05 12:20:14;;;;;;;1.57;1.20;;;18.10;30.00;;;;;;5032652;28;20410;-68
2021/10/05 12:22:44;;;;;;;1.83;1.37;;;18.10;29.80;;;;;;5032157;28;20524;-66
2021/10/05 12:25:15;;;;;;;2.40;1.50;;;18.00;32.20;;;;;;5033359;28;20803;-67
2021/10/05 12:27:42;;;;;;;2.70;1.47;;;18.00;31.70;;;;;;5032565;28;20453;-67
2021/10/05 12:30:14;;;;;;;2.20;1.77;;;18.00;31.00;;;;;;5032332;28;20410;-66
2021/10/05 12:32:50;;;;;;;1.93;1.53;;;18.00;30.70;;;;;;5012223;28;20446;-67
2021/10/05 12:35:36;;;;;;;1.50;1.27;;;18.00;31.30;;;;;;5012777;28;20438;-66
2021/10/05 12:38:09;;;;;;;1.60;1.40;;;18.10;31.70;;;;;;5019379;28;20491;-68